KHNB/HNB METAR and TAF weather

Enter ICAO airport designator
Station Type Date Time Source
KHNB METAR 2022/11/27 07:56 UTC NOAA

KHNB 270756Z AUTO 14013G20KT 10SM -RA BKN008 OVC014 13/12 A2954 RMK AO2 CIG 006V011 SLP002 P0012 T01280122


Station Type Date Time Source
KHNB Decoded METAR 2022/11/27 07:56 UTC NOAA

Huntingburg, IN, United States (KHNB) 38-15N 086-57W
Nov 27, 2022 - 02:56 AM EST / 2022.11.27 0756 UTC
Wind: from the SE (140 degrees) at 15 MPH (13 KT) gusting to 23 MPH (20 KT):0
Visibility: 10 mile(s):0
Sky conditions: overcast
Weather: light rain
Precipitation last hour: 0.12 inches
Temperature: 55.0 F (12.8 C)
Dew Point: 54.0 F (12.2 C)
Relative Humidity: 96%
Pressure (altimeter): 29.54 in. Hg (1000 hPa)
ob: KHNB 270756Z AUTO 14013G20KT 10SM -RA BKN008 OVC014 13/12 A2954 RMK AO2 CIG 006V011 SLP002 P0012 T01280122
cycle: 8

Station Type Date Time Source
KHNB TAF 2022/11/27 06:27 UTC NOAA

TAF KHNB 270523Z 2706/2806 13013KT P6SM -SHRA OVC018 WS017/15045KT
FM271000 16015G22KT P6SM -SHRA OVC012 WS020/18044KT
FM271300 20020G30KT P6SM VCSH BKN012
FM271700 23018G25KT P6SM VCSH OVC008
FM272200 28013G20KT P6SM OVC009
FM280100 28007KT P6SM OVC018

Example: see airport list